createdAt,value
2023-04-22T00:00:51.761Z,101850.34
2023-04-22T00:03:56.911Z,101858.91
2023-04-22T00:07:01.997Z,101855.53
2023-04-22T00:10:08.824Z,101847.84
2023-04-22T00:13:13.819Z,101843.63
2023-04-22T00:16:18.552Z,101845.34
2023-04-22T00:19:23.351Z,101839.44
2023-04-22T00:22:27.988Z,101836.91
2023-04-22T00:25:34.091Z,101837.75
2023-04-22T00:28:38.776Z,101837.75
2023-04-22T00:31:43.637Z,101833.53
2023-04-22T00:34:48.436Z,101831.81
2023-04-22T00:37:53.337Z,101830.13
2023-04-22T00:40:59.422Z,101828.44
2023-04-22T00:44:04.309Z,101826.72
2023-04-22T00:47:09.424Z,101821.72
2023-04-22T00:50:14.368Z,101810.66
2023-04-22T00:53:19.106Z,101811.56
2023-04-22T00:56:25.347Z,101809.81
2023-04-22T00:59:29.985Z,101802.22
2023-04-22T01:05:54.290Z,101799.66
2023-04-22T01:08:59.062Z,101803.09
2023-04-22T01:12:05.158Z,101803.09
2023-04-22T01:15:10.892Z,101801.38
2023-04-22T01:18:15.690Z,101794.59
2023-04-22T01:21:20.430Z,101798.88
2023-04-22T01:24:26.601Z,101797.19
2023-04-22T01:27:31.316Z,101799.69
2023-04-22T01:30:36.025Z,101799.75
2023-04-22T01:33:40.773Z,101792.09
2023-04-22T01:36:45.497Z,101790.41
2023-04-22T01:39:52.479Z,101783.63
2023-04-22T01:42:57.161Z,101785.31
2023-04-22T01:46:02.093Z,101785.34
2023-04-22T01:49:06.845Z,101771.75
2023-04-22T01:52:12.536Z,101781.06
2023-04-22T01:55:18.572Z,101787.88
2023-04-22T01:58:23.388Z,101787.91
2023-04-22T02:01:28.099Z,101781.97
2023-04-22T02:04:32.977Z,101777.75
2023-04-22T02:07:38.687Z,101781.16
2023-04-22T02:10:45.027Z,101771.81
2023-04-22T02:13:50.006Z,101770.13
2023-04-22T02:16:54.815Z,101768.44
2023-04-22T02:19:59.614Z,101762.53
2023-04-22T02:23:04.474Z,101763.38
2023-04-22T02:26:11.491Z,101762.50
2023-04-22T02:29:16.275Z,101756.59
2023-04-22T02:32:20.933Z,101751.53
2023-04-22T02:35:25.763Z,101752.38
2023-04-22T02:38:30.427Z,101742.19
2023-04-22T02:41:36.989Z,101748.13
2023-04-22T02:44:42.000Z,101746.44
2023-04-22T02:47:46.963Z,101743.03
2023-04-22T02:50:52.775Z,101741.34
2023-04-22T02:53:57.489Z,101746.44
2023-04-22T02:57:03.615Z,101737.97
2023-04-22T03:00:11.698Z,101743.88
2023-04-22T03:03:16.540Z,101732.91
2023-04-22T03:06:21.886Z,101730.34
2023-04-22T03:09:27.104Z,101732.88
2023-04-22T03:12:33.253Z,101734.56
2023-04-22T03:15:38.093Z,101728.66
2023-04-22T03:18:43.055Z,101728.63
2023-04-22T03:21:48.565Z,101726.94
2023-04-22T03:24:53.429Z,101720.16
2023-04-22T03:27:59.757Z,101721.03
2023-04-22T03:31:04.584Z,101715.94
2023-04-22T03:34:09.254Z,101713.41
2023-04-22T03:37:14.689Z,101715.09
2023-04-22T03:40:19.421Z,101710.00
2023-04-22T03:43:25.797Z,101704.06
2023-04-22T03:46:39.356Z,101704.06
2023-04-22T03:49:55.508Z,101700.69
2023-04-22T03:53:01.017Z,101703.22
2023-04-22T03:56:06.239Z,101698.97
2023-04-22T03:59:16.361Z,101698.16
2023-04-22T04:02:21.748Z,101693.91
2023-04-22T04:05:27.015Z,101688.81
2023-04-22T04:08:32.347Z,101690.53
2023-04-22T04:11:38.050Z,101688.81
2023-04-22T04:14:44.371Z,101678.63
2023-04-22T04:17:52.749Z,101691.34
2023-04-22T04:20:58.822Z,101692.19
2023-04-22T04:24:07.348Z,101688.81
2023-04-22T04:27:17.530Z,101686.22
2023-04-22T04:30:33.028Z,101687.94
2023-04-22T04:33:39.540Z,101676.94
2023-04-22T04:36:46.555Z,101675.22
2023-04-22T04:39:59.348Z,101677.72
2023-04-22T04:43:13.029Z,101675.16
2023-04-22T04:46:29.576Z,101681.94
2023-04-22T04:49:40.266Z,101679.41
2023-04-22T04:52:46.380Z,101673.41
2023-04-22T04:55:51.543Z,101674.25
2023-04-22T04:59:00.243Z,101670.84
2023-04-22T05:02:07.838Z,101679.31
2023-04-22T05:05:13.831Z,101663.19
2023-04-22T05:08:20.731Z,101669.97
2023-04-22T05:11:26.716Z,101669.91
2023-04-22T05:14:33.298Z,101661.44
2023-04-22T05:17:39.560Z,101671.59
2023-04-22T05:20:44.487Z,101661.34
2023-04-22T05:23:49.280Z,101666.41
2023-04-22T05:26:54.019Z,101655.38
2023-04-22T05:29:58.840Z,101662.06
2023-04-22T05:33:10.703Z,101647.56
2023-04-22T05:36:15.504Z,101653.47
2023-04-22T05:39:21.909Z,101650.81
2023-04-22T05:42:27.763Z,101649.91
2023-04-22T05:45:32.541Z,101646.47
2023-04-22T05:48:39.580Z,101644.63
2023-04-22T05:51:48.064Z,101653.94
2023-04-22T05:54:55.839Z,101636.00
2023-04-22T05:58:00.878Z,101628.22
2023-04-22T06:01:17.123Z,101624.69
2023-04-22T06:04:37.156Z,101617.78
2023-04-22T06:07:43.013Z,101611.59
2023-04-22T06:10:47.682Z,101616.59
2023-04-22T06:13:52.896Z,101621.56
2023-04-22T06:16:58.109Z,101618.84
2023-04-22T06:20:04.527Z,101616.22
2023-04-22T06:23:09.633Z,101604.88
2023-04-22T06:26:14.432Z,101610.41
2023-04-22T06:29:19.173Z,101603.41
2023-04-22T06:32:25.908Z,101598.59
2023-04-22T06:35:32.064Z,101585.31
2023-04-22T06:38:36.840Z,101588.19
2023-04-22T06:42:01.572Z,101580.34
2023-04-22T06:45:23.752Z,101571.91
2023-04-22T06:48:48.486Z,101571.94
2023-04-22T06:52:01.864Z,101572.13
2023-04-22T06:55:07.047Z,101563.09
2023-04-22T06:58:12.608Z,101558.91
2023-04-22T07:01:18.031Z,101556.50
2023-04-22T07:04:24.053Z,101558.41
2023-04-22T07:07:30.219Z,101554.81
2023-04-22T07:10:35.292Z,101543.13
2023-04-22T07:14:06.354Z,101539.19
2023-04-22T07:17:11.428Z,101538.84
2023-04-22T07:20:16.617Z,101533.06
2023-04-22T07:23:23.325Z,101534.38
2023-04-22T07:26:28.104Z,101529.66
2023-04-22T07:29:32.868Z,101525.50
2023-04-22T07:32:37.548Z,101518.97
2023-04-22T07:35:42.282Z,101520.53
2023-04-22T07:38:48.537Z,101515.09
2023-04-22T07:41:53.312Z,101513.34
2023-04-22T07:44:57.970Z,101507.13
2023-04-22T07:48:02.797Z,101507.75
2023-04-22T07:51:07.582Z,101510.09
2023-04-22T07:54:14.005Z,101508.06
2023-04-22T07:57:21.893Z,101504.59
2023-04-22T08:00:27.102Z,101501.47
2023-04-22T08:03:32.124Z,101496.59
2023-04-22T08:06:36.922Z,101497.34
2023-04-22T08:09:43.003Z,101497.31
2023-04-22T08:12:47.800Z,101494.25
2023-04-22T08:15:52.573Z,101486.00
2023-04-22T08:18:57.900Z,101492.38
2023-04-22T08:22:02.870Z,101488.00
2023-04-22T08:25:09.827Z,101485.13
2023-04-22T08:28:14.522Z,101476.88
2023-04-22T08:31:19.343Z,101489.19
2023-04-22T08:34:24.931Z,101484.34
2023-04-22T08:37:30.776Z,101487.53
2023-04-22T08:40:36.972Z,101472.88
2023-04-22T08:43:41.676Z,101483.84
2023-04-22T08:46:47.241Z,101464.03
2023-04-22T08:49:52.149Z,101459.34
2023-04-22T08:52:56.947Z,101458.41
2023-04-22T08:56:02.998Z,101457.81
2023-04-22T08:59:07.822Z,101458.53
2023-04-22T09:02:15.117Z,101443.38
2023-04-22T09:05:19.856Z,101443.50
2023-04-22T09:08:24.647Z,101441.53
2023-04-22T09:11:30.920Z,101438.34
2023-04-22T09:14:35.885Z,101432.69
2023-04-22T09:17:41.478Z,101435.25
2023-04-22T09:20:47.485Z,101424.59
2023-04-22T09:23:53.049Z,101423.03
2023-04-22T09:26:59.267Z,101417.34
2023-04-22T09:30:05.579Z,101420.75
2023-04-22T09:33:15.794Z,101413.59
2023-04-22T09:36:23.218Z,101413.50
2023-04-22T09:39:27.945Z,101403.91
2023-04-22T09:42:34.113Z,101403.16
2023-04-22T09:45:39.280Z,101398.97
2023-04-22T09:48:44.018Z,101396.44
2023-04-22T09:51:49.903Z,101403.91
2023-04-22T09:54:54.926Z,101392.81
2023-04-22T09:58:05.608Z,101398.66
2023-04-22T10:01:11.531Z,101391.97
2023-04-22T10:04:18.208Z,101384.16
2023-04-22T10:07:22.951Z,101378.81
2023-04-22T10:10:27.623Z,101376.84
2023-04-22T10:13:33.806Z,101384.16
2023-04-22T10:16:38.974Z,101361.22
2023-04-22T10:19:43.735Z,101362.53
2023-04-22T10:22:48.465Z,101359.44
2023-04-22T10:25:55.319Z,101361.22
2023-04-22T10:29:01.522Z,101366.91
2023-04-22T10:32:08.484Z,101354.72
2023-04-22T10:35:16.439Z,101348.28
2023-04-22T10:38:21.107Z,101336.28
2023-04-22T10:41:26.770Z,101334.09
2023-04-22T10:44:46.229Z,101336.06
2023-04-22T10:47:50.973Z,101334.69
2023-04-22T10:50:55.733Z,101335.94
2023-04-22T10:54:02.716Z,101323.75
2023-04-22T10:57:08.168Z,101316.84
2023-04-22T11:00:35.384Z,101318.66
2023-04-22T11:03:46.849Z,101316.84
2023-04-22T11:07:07.280Z,101313.00
2023-04-22T11:10:17.122Z,101302.78
2023-04-22T11:13:22.557Z,101289.72
2023-04-22T11:16:28.685Z,101298.72
2023-04-22T11:19:33.460Z,101293.19
2023-04-22T11:22:38.755Z,101300.53
2023-04-22T11:25:43.467Z,101286.47
2023-04-22T11:28:48.944Z,101288.53
2023-04-22T11:31:55.214Z,101286.53
2023-04-22T11:34:59.980Z,101271.09
2023-04-22T11:38:05.719Z,101276.41
2023-04-22T11:41:12.488Z,101264.41
2023-04-22T11:44:17.271Z,101261.63
2023-04-22T11:47:23.410Z,101256.34
2023-04-22T11:50:28.519Z,101255.56
2023-04-22T11:53:33.162Z,101248.34
2023-04-22T11:56:38.522Z,101242.34
2023-04-22T11:59:43.449Z,101239.00
2023-04-22T12:02:57.620Z,101231.13
2023-04-22T12:06:02.883Z,101230.91
2023-04-22T12:09:08.756Z,101229.47
2023-04-22T12:12:14.162Z,101234.16
2023-04-22T12:15:18.892Z,101224.03
2023-04-22T12:18:31.310Z,101223.03
2023-04-22T12:21:36.289Z,101214.06
2023-04-22T12:24:45.422Z,101219.06
2023-04-22T12:27:50.134Z,101209.88
2023-04-22T12:30:54.989Z,101195.94
2023-04-22T12:34:02.151Z,101205.53
2023-04-22T12:37:06.949Z,101206.03
2023-04-22T12:40:15.003Z,101206.66
2023-04-22T12:43:19.910Z,101211.22
2023-04-22T12:46:24.686Z,101202.69
2023-04-22T12:49:30.916Z,101195.31
2023-04-22T12:52:36.155Z,101200.72
2023-04-22T12:55:42.548Z,101200.13
2023-04-22T12:58:49.120Z,101200.13
2023-04-22T13:01:54.929Z,101194.88
2023-04-22T13:05:01.285Z,101193.25
2023-04-22T13:08:07.530Z,101191.59
2023-04-22T13:11:14.326Z,101196.94
2023-04-22T13:14:19.166Z,101196.66
2023-04-22T13:17:23.944Z,101194.09
2023-04-22T13:20:30.421Z,101193.59
2023-04-22T13:23:35.418Z,101188.13
2023-04-22T13:26:40.718Z,101181.94
2023-04-22T13:29:45.579Z,101183.25
2023-04-22T13:32:50.281Z,101177.97
2023-04-22T13:35:56.417Z,101188.25
2023-04-22T13:39:01.389Z,101186.75
2023-04-22T13:42:06.280Z,101183.06
2023-04-22T13:45:11.720Z,101182.91
2023-04-22T13:48:16.513Z,101188.06
2023-04-22T13:51:22.632Z,101174.19
2023-04-22T13:54:28.141Z,101167.88
2023-04-22T13:57:32.848Z,101170.91
2023-04-22T14:00:37.608Z,101186.22
2023-04-22T14:03:42.324Z,101173.72
2023-04-22T14:06:48.524Z,101164.84
2023-04-22T14:09:53.278Z,101165.19
2023-04-22T14:12:58.051Z,101165.84
2023-04-22T14:16:03.739Z,101163.81
2023-04-22T14:19:10.216Z,101157.13
2023-04-22T14:22:16.262Z,101154.19
2023-04-22T14:25:21.055Z,101150.41
2023-04-22T14:28:25.906Z,101150.41
2023-04-22T14:31:30.634Z,101149.38
2023-04-22T14:34:35.283Z,101152.00
2023-04-22T14:37:43.516Z,101152.97
2023-04-22T14:40:48.214Z,101157.25
2023-04-22T14:43:53.024Z,101158.56
2023-04-22T14:46:57.720Z,101155.75
2023-04-22T14:50:02.623Z,101153.53
2023-04-22T14:53:08.755Z,101148.44
2023-04-22T14:56:14.290Z,101146.00
2023-04-22T14:59:18.988Z,101144.03
2023-04-22T15:02:23.890Z,101138.94
2023-04-22T15:05:28.755Z,101147.00
2023-04-22T15:08:34.838Z,101135.78
2023-04-22T15:11:39.752Z,101136.03
2023-04-22T15:14:44.593Z,101131.16
2023-04-22T15:17:49.345Z,101129.50
2023-04-22T15:20:54.052Z,101126.81
2023-04-22T15:24:00.117Z,101131.00
2023-04-22T15:27:04.982Z,101130.31
2023-04-22T15:30:11.131Z,101126.75
2023-04-22T15:33:16.636Z,101126.97
2023-04-22T15:36:22.047Z,101128.41
2023-04-22T15:39:28.252Z,101129.06
2023-04-22T15:42:33.003Z,101120.88
2023-04-22T15:45:37.901Z,101111.22
2023-04-22T15:48:47.104Z,101109.84
2023-04-22T15:51:51.864Z,101109.75
2023-04-22T15:54:57.947Z,101100.75
2023-04-22T15:58:02.716Z,101106.44
2023-04-22T16:01:18.870Z,101105.16
2023-04-22T16:04:25.073Z,101093.75
2023-04-22T16:07:29.848Z,101088.97
2023-04-22T16:10:35.968Z,101092.44
2023-04-22T16:13:40.676Z,101080.03
2023-04-22T16:16:45.881Z,101086.03
2023-04-22T16:19:50.609Z,101080.03
2023-04-22T16:22:55.304Z,101084.81
2023-04-22T16:26:02.786Z,101086.66
2023-04-22T16:29:07.609Z,101085.59
2023-04-22T16:32:12.433Z,101081.22
2023-04-22T16:35:17.129Z,101081.44
2023-04-22T16:38:21.801Z,101084.25
2023-04-22T16:41:28.027Z,101084.63
2023-04-22T16:44:32.745Z,101075.91
2023-04-22T16:47:37.566Z,101074.66
2023-04-22T16:50:42.341Z,101070.75
2023-04-22T16:53:47.283Z,101072.22
2023-04-22T16:56:53.333Z,101074.47
2023-04-22T16:59:57.792Z,101074.72
2023-04-22T17:03:02.753Z,101074.53
2023-04-22T17:06:08.160Z,101066.56
2023-04-22T17:09:14.305Z,101056.06
2023-04-22T17:12:20.367Z,101048.69
2023-04-22T17:15:25.037Z,101059.78
2023-04-22T17:18:29.875Z,101051.53
2023-04-22T17:21:35.418Z,101063.78
2023-04-22T17:24:40.027Z,101060.38
2023-04-22T17:27:46.114Z,101066.13
2023-04-22T17:30:50.840Z,101065.91
2023-04-22T17:33:55.539Z,101060.28
2023-04-22T17:37:00.284Z,101064.16
2023-04-22T17:40:05.281Z,101068.94
2023-04-22T17:43:13.488Z,101066.09
2023-04-22T17:46:18.321Z,101072.66
2023-04-22T17:49:23.157Z,101060.44
2023-04-22T17:52:27.910Z,101067.25
2023-04-22T17:55:35.265Z,101062.84
2023-04-22T17:58:41.470Z,101067.47
2023-04-22T18:01:46.269Z,101065.16
2023-04-22T18:04:50.978Z,101061.72
2023-04-22T18:07:58.301Z,101066.69
2023-04-22T18:11:03.254Z,101066.19
2023-04-22T18:14:09.392Z,101062.06
2023-04-22T18:17:14.681Z,101060.13
2023-04-22T18:20:19.828Z,101070.38
2023-04-22T18:23:25.415Z,101068.75
2023-04-22T18:26:31.615Z,101063.84
2023-04-22T18:29:38.127Z,101064.69
2023-04-22T18:32:43.202Z,101062.94
2023-04-22T18:35:47.920Z,101062.31
2023-04-22T18:38:53.445Z,101071.75
2023-04-22T18:41:58.195Z,101060.94
2023-04-22T18:45:05.067Z,101068.25
2023-04-22T18:48:12.350Z,101060.31
2023-04-22T18:51:17.194Z,101066.91
2023-04-22T18:54:21.812Z,101059.91
2023-04-22T18:57:26.564Z,101075.44
2023-04-22T19:00:32.731Z,101074.13
2023-04-22T19:03:37.508Z,101078.91
2023-04-22T19:06:42.187Z,101085.00
2023-04-22T19:09:46.935Z,101087.91
2023-04-22T19:12:51.660Z,101084.91
2023-04-22T19:15:57.789Z,101078.31
2023-04-22T19:19:02.758Z,101073.28
2023-04-22T19:22:07.768Z,101078.91
2023-04-22T19:25:13.000Z,101066.59
2023-04-22T19:28:17.633Z,101063.28
2023-04-22T19:31:23.737Z,101063.50
2023-04-22T19:34:28.763Z,101066.97
2023-04-22T19:37:34.095Z,101061.69
2023-04-22T19:40:38.836Z,101055.22
2023-04-22T19:43:43.559Z,101046.13
2023-04-22T19:46:49.842Z,101045.19
2023-04-22T19:49:54.982Z,101046.63
2023-04-22T19:53:02.916Z,101046.41
2023-04-22T19:56:07.709Z,101037.34
2023-04-22T19:59:13.516Z,101047.41
2023-04-22T20:02:19.946Z,101050.53
2023-04-22T20:05:25.506Z,101051.19
2023-04-22T20:08:30.863Z,101053.00
2023-04-22T20:11:35.801Z,101042.31
2023-04-22T20:14:40.736Z,101047.88
2023-04-22T20:17:47.241Z,101040.97
2023-04-22T20:20:53.323Z,101031.84
2023-04-22T20:23:58.178Z,101031.59
2023-04-22T20:27:02.855Z,101019.13
2023-04-22T20:30:08.641Z,101020.44
2023-04-22T20:33:18.076Z,101021.22
2023-04-22T20:36:24.241Z,101028.16
2023-04-22T20:39:29.010Z,101017.03
2023-04-22T20:42:33.810Z,101024.69
2023-04-22T20:45:38.498Z,101026.66
2023-04-22T20:48:44.692Z,101029.75
2023-04-22T20:51:51.179Z,101020.69
2023-04-22T20:54:56.621Z,101018.75
2023-04-22T20:58:01.712Z,101014.78
2023-04-22T21:01:06.542Z,101021.59
2023-04-22T21:04:14.479Z,101011.38
2023-04-22T21:07:20.448Z,101006.25
2023-04-22T21:10:25.450Z,101009.44
2023-04-22T21:13:30.394Z,101003.75
2023-04-22T21:16:35.110Z,101011.25
2023-04-22T21:19:41.173Z,101000.47
2023-04-22T21:22:45.814Z,100997.50
2023-04-22T21:25:51.582Z,100994.31
2023-04-22T21:28:57.893Z,100981.78
2023-04-22T21:32:09.484Z,100984.53
2023-04-22T21:35:16.054Z,100985.50
2023-04-22T21:38:20.827Z,100984.69
2023-04-22T21:41:25.557Z,100981.13
2023-04-22T21:44:30.252Z,100976.50
2023-04-22T21:47:35.236Z,100964.31
2023-04-22T21:50:41.407Z,100972.97
2023-04-22T21:53:46.167Z,100958.81
2023-04-22T21:56:50.932Z,100971.13
2023-04-22T21:59:55.607Z,100968.13
2023-04-22T22:03:00.629Z,100972.13
2023-04-22T22:06:07.552Z,100968.91
2023-04-22T22:09:12.469Z,100963.00
2023-04-22T22:12:17.489Z,100972.38
2023-04-22T22:15:22.306Z,100967.69
2023-04-22T22:18:27.174Z,100956.31
2023-04-22T22:21:33.916Z,100962.84
2023-04-22T22:24:39.022Z,100962.06
2023-04-22T22:27:47.105Z,100963.16
2023-04-22T22:30:51.946Z,100959.06
2023-04-22T22:33:57.508Z,100957.59
2023-04-22T22:37:03.508Z,100966.50
2023-04-22T22:40:09.795Z,100966.47
2023-04-22T22:43:14.510Z,100962.00
2023-04-22T22:46:19.240Z,100962.97
2023-04-22T22:49:25.092Z,100973.72
2023-04-22T22:52:32.237Z,100969.47
2023-04-22T22:55:37.002Z,100966.09
2023-04-22T22:58:41.720Z,100965.63
2023-04-22T23:01:46.467Z,100959.22
2023-04-22T23:04:51.337Z,100946.94
2023-04-22T23:07:57.550Z,100950.34
2023-04-22T23:11:02.393Z,100954.53
2023-04-22T23:14:09.661Z,100961.25
2023-04-22T23:17:17.233Z,100963.31
2023-04-22T23:20:21.918Z,100966.47
2023-04-22T23:23:28.028Z,100964.84
2023-04-22T23:26:33.007Z,100966.00
2023-04-22T23:29:38.764Z,100968.31
2023-04-22T23:32:44.236Z,100958.78
2023-04-22T23:35:49.015Z,100954.19
2023-04-22T23:38:57.757Z,100961.66
2023-04-22T23:42:02.735Z,100957.25
2023-04-22T23:45:08.059Z,100954.97
2023-04-22T23:48:12.925Z,100945.09
2023-04-22T23:51:18.068Z,100945.72
2023-04-22T23:54:24.402Z,100947.63
2023-04-22T23:57:29.457Z,100946.56
